Time;durP1;ratioP1;P1;durP2;ratioP2;P2;SDS_P1;SDS_P2;PMS_P1;PMS_P2;Temp;Humidity;BMP_temperature;BMP_pressure;BME280_temperature;BME280_humidity;BME280_pressure;Samples;Min_cycle;Max_cycle;Signal;HPM_P1;HPM_P2
2023/06/15 00:01:04;;;;;;;;;;;;;;;17.75;51.53;101831.53;5096721;28;19920;-44
2023/06/15 00:03:29;;;;;;;;;;;;;;;17.72;51.75;101828.91;5107342;28;19970;-45
2023/06/15 00:05:54;;;;;;;;;;;;;;;17.66;51.75;101830.53;5096130;28;20076;-47
2023/06/15 00:08:20;;;;;;;;;;;;;;;17.62;51.92;101827.88;5105185;28;19919;-44
2023/06/15 00:10:45;;;;;;;;;;;;;;;17.60;51.95;101833.06;5102229;28;19916;-45
2023/06/15 00:13:10;;;;;;;;;;;;;;;17.54;51.37;101827.75;5094053;28;19916;-45
2023/06/15 00:15:36;;;;;;;;;;;;;;;17.52;51.96;101826.84;5105639;28;19920;-44
2023/06/15 00:18:01;;;;;;;;;;;;;;;17.49;52.68;101828.53;5098124;28;19923;-47
2023/06/15 00:20:28;;;;;;;;;;;;;;;17.47;52.28;101820.69;5103120;28;19915;-47
2023/06/15 00:22:55;;;;;;;;;;;;;;;17.43;51.72;101819.78;5101895;28;19919;-46
2023/06/15 00:25:21;;;;;;;;;;;;;;;17.42;52.88;101824.97;5101318;28;19916;-46
2023/06/15 00:27:46;;;;;;;;;;;;;;;17.37;53.26;101830.09;5086505;28;19912;-44
2023/06/15 00:30:11;;;;;;;;;;;;;;;17.34;53.39;101830.03;5106112;28;20011;-46
2023/06/15 00:32:37;;;;;;;;;;;;;;;17.31;53.00;101829.13;5123402;28;20298;-45
2023/06/15 00:35:03;;;;;;;;;;;;;;;17.27;53.26;101835.13;5117825;28;19945;-45
2023/06/15 00:37:28;;;;;;;;;;;;;;;17.24;53.96;101835.97;5110951;28;20347;-46
2023/06/15 00:39:53;;;;;;;;;;;;;;;17.24;53.99;101837.69;5101073;28;19948;-44
2023/06/15 00:42:19;;;;;;;;;;;;;;;17.22;53.61;101839.38;5092209;28;19912;-44
2023/06/15 00:44:44;;;;;;;;;;;;;;;17.18;54.30;101838.47;5095310;28;19950;-45
2023/06/15 00:47:10;;;;;;;;;;;;;;;17.14;54.01;101840.13;5107295;28;19969;-45
2023/06/15 00:49:36;;;;;;;;;;;;;;;17.12;54.91;101839.22;5097401;28;19915;-60
2023/06/15 00:52:02;;;;;;;;;;;;;;;17.08;54.07;101842.63;5102742;28;19919;-60
2023/06/15 00:54:27;;;;;;;;;;;;;;;17.06;54.92;101846.94;5116958;27;19948;-59
2023/06/15 00:56:53;;;;;;;;;;;;;;;17.02;54.38;101839.91;5113645;28;19927;-57
2023/06/15 00:59:19;;;;;;;;;;;;;;;17.01;55.47;101843.38;5114098;28;19920;-60
2023/06/15 01:01:54;;;;;;;;;;;;;;;16.99;54.31;101841.59;5093683;28;19916;-60
2023/06/15 01:04:26;;;;;;;;;;;;;;;17.00;54.38;101838.16;5103686;28;20441;-60
2023/06/15 01:06:56;;;;;;;;;;;;;;;17.01;53.67;101839.91;5100166;28;20585;-58
2023/06/15 01:09:22;;;;;;;;;;;;;;;17.01;54.99;101843.38;5111157;28;19912;-60
2023/06/15 01:11:53;;;;;;;;;;;;;;;17.02;53.31;101839.91;5107674;27;19926;-59
2023/06/15 01:14:26;;;;;;;;;;;;;;;17.03;54.78;101836.47;5086542;28;20370;-62
2023/06/15 01:16:53;;;;;;;;;;;;;;;17.03;54.12;101839.06;5102715;28;19920;-59
2023/06/15 01:19:37;;;;;;;;;;;;;;;17.01;52.55;101840.78;5100369;28;19916;-59
2023/06/15 01:22:11;;;;;;;;;;;;;;;16.99;54.83;101834.69;5079715;28;20374;-59
2023/06/15 01:24:39;;;;;;;;;;;;;;;16.97;55.11;101841.56;5111164;27;20377;-60
2023/06/15 01:27:04;;;;;;;;;;;;;;;16.95;55.82;101838.06;5107635;27;19912;-59
2023/06/15 01:29:31;;;;;;;;;;;;;;;16.93;53.98;101847.56;5100937;28;19930;-60
2023/06/15 01:31:57;;;;;;;;;;;;;;;16.92;56.16;101844.91;5111914;27;19949;-59
2023/06/15 01:34:22;;;;;;;;;;;;;;;16.89;54.75;101848.34;5100391;28;19919;-59
2023/06/15 01:36:47;;;;;;;;;;;;;;;16.86;53.92;101853.47;5123091;27;19945;-46
2023/06/15 01:39:12;;;;;;;;;;;;;;;16.83;55.83;101853.44;5116034;27;19916;-45
2023/06/15 01:41:38;;;;;;;;;;;;;;;16.82;55.98;101859.47;5115215;27;20310;-45
2023/06/15 01:44:05;;;;;;;;;;;;;;;16.79;55.33;101844.69;5099472;28;20252;-46
2023/06/15 01:46:31;;;;;;;;;;;;;;;16.76;55.79;101851.56;5108515;27;19944;-45
2023/06/15 01:48:56;;;;;;;;;;;;;;;16.74;55.93;101856.72;5101924;27;19919;-48
2023/06/15 01:51:23;;;;;;;;;;;;;;;16.71;56.63;101850.63;5115310;27;19918;-44
2023/06/15 01:53:48;;;;;;;;;;;;;;;16.69;57.50;101852.28;5112446;27;19923;-47
2023/06/15 01:56:14;;;;;;;;;;;;;;;16.68;56.01;101856.56;5087366;28;20294;-45
2023/06/15 01:58:39;;;;;;;;;;;;;;;16.69;56.73;101849.69;5104599;28;19923;-46
2023/06/15 02:01:05;;;;;;;;;;;;;;;16.70;55.42;101848.84;5098758;28;19924;-46
2023/06/15 02:03:31;;;;;;;;;;;;;;;16.69;56.23;101847.97;5100853;28;19912;-45
2023/06/15 02:05:56;;;;;;;;;;;;;;;16.67;56.94;101846.16;5100663;28;19924;-43
2023/06/15 02:08:21;;;;;;;;;;;;;;;16.66;56.21;101847.88;5103776;28;20374;-47
2023/06/15 02:10:47;;;;;;;;;;;;;;;16.63;54.93;101848.72;5105145;28;19967;-45
2023/06/15 02:13:12;;;;;;;;;;;;;;;16.59;56.47;101852.09;5107500;28;20387;-46
2023/06/15 02:15:38;;;;;;;;;;;;;;;16.57;55.45;101853.78;5080063;28;20003;-48
2023/06/15 02:18:12;;;;;;;;;;;;;;;16.56;57.64;101851.16;5103989;28;20026;-46
2023/06/15 02:20:38;;;;;;;;;;;;;;;16.53;57.26;101851.97;5114104;27;19915;-46
2023/06/15 02:23:03;;;;;;;;;;;;;;;16.51;57.29;101860.59;5112916;28;19911;-48
2023/06/15 02:25:30;;;;;;;;;;;;;;;16.48;56.96;101857.91;5110696;28;19939;-46
2023/06/15 02:27:56;;;;;;;;;;;;;;;16.47;58.23;101851.84;5106131;28;19955;-47
2023/06/15 02:30:22;;;;;;;;;;;;;;;16.43;58.18;101863.00;5097593;28;19923;-45
2023/06/15 02:32:48;;;;;;;;;;;;;;;16.38;58.67;101862.06;5091362;28;20387;-45
2023/06/15 02:35:14;;;;;;;;;;;;;;;16.32;59.06;101867.16;5095624;28;20582;-46
2023/06/15 02:37:39;;;;;;;;;;;;;;;16.26;58.56;101873.09;5094781;28;19913;-44
2023/06/15 02:40:05;;;;;;;;;;;;;;;16.21;56.25;101873.81;5100377;28;20396;-46
2023/06/15 02:42:31;;;;;;;;;;;;;;;16.19;59.22;101870.31;5112539;28;19919;-46
2023/06/15 02:44:57;;;;;;;;;;;;;;;16.17;57.97;101870.28;5107412;28;19916;-46
2023/06/15 02:47:22;;;;;;;;;;;;;;;16.15;58.38;101876.28;5100718;28;20000;-44
2023/06/15 02:49:48;;;;;;;;;;;;;;;16.15;57.44;101873.69;5105154;28;19995;-47
2023/06/15 02:52:13;;;;;;;;;;;;;;;16.16;59.21;101872.84;5100621;28;19935;-43
2023/06/15 02:54:39;;;;;;;;;;;;;;;16.14;58.40;101882.28;5096469;28;20293;-48
2023/06/15 02:57:07;;;;;;;;;;;;;;;16.12;59.76;101871.91;5105908;28;19912;-45
2023/06/15 02:59:36;;;;;;;;;;;;;;;16.09;58.12;101875.31;5093106;28;20459;-45
2023/06/15 03:02:04;;;;;;;;;;;;;;;16.06;58.19;101877.81;5086132;28;19927;-44
2023/06/15 03:04:30;;;;;;;;;;;;;;;16.04;59.76;101874.34;5083212;28;19920;-46
2023/06/15 03:06:58;;;;;;;;;;;;;;;16.00;58.69;101869.91;5081229;28;19916;-46
2023/06/15 03:09:25;;;;;;;;;;;;;;;15.97;59.82;101869.84;5096397;28;20006;-45
2023/06/15 03:11:50;;;;;;;;;;;;;;;15.95;59.25;101874.13;5095274;28;19919;-45
2023/06/15 03:14:18;;;;;;;;;;;;;;;15.93;59.68;101872.34;5097706;28;20293;-45
2023/06/15 03:16:46;;;;;;;;;;;;;;;15.91;57.46;101871.44;5086312;28;20027;-48
2023/06/15 03:19:13;;;;;;;;;;;;;;;15.90;57.12;101875.75;5095117;28;19923;-46
2023/06/15 03:21:38;;;;;;;;;;;;;;;15.89;60.21;101878.28;5099435;28;20011;-45
2023/06/15 03:24:03;;;;;;;;;;;;;;;15.87;58.96;101874.81;5090623;28;20062;-46
2023/06/15 03:26:29;;;;;;;;;;;;;;;15.84;60.23;101878.22;5098616;28;19927;-47
2023/06/15 03:28:57;;;;;;;;;;;;;;;15.82;60.13;101880.75;5103239;28;20406;-44
2023/06/15 03:31:22;;;;;;;;;;;;;;;15.80;60.49;101882.44;5100805;28;20365;-44
2023/06/15 03:33:47;;;;;;;;;;;;;;;15.80;60.11;101874.66;5096872;28;19974;-59
2023/06/15 03:36:16;;;;;;;;;;;;;;;15.80;62.35;101877.25;5073286;28;20286;-60
2023/06/15 03:38:42;;;;;;;;;;;;;;;15.80;60.61;101878.97;5092280;28;20378;-60
2023/06/15 03:41:07;;;;;;;;;;;;;;;15.80;58.27;101878.97;5088497;28;20032;-60
2023/06/15 03:43:33;;;;;;;;;;;;;;;15.80;60.93;101874.66;5100680;28;19911;-45
2023/06/15 03:45:59;;;;;;;;;;;;;;;15.81;60.59;101878.13;5092073;28;20003;-46
2023/06/15 03:48:24;;;;;;;;;;;;;;;15.80;61.75;101873.78;5093381;28;19966;-44
2023/06/15 03:50:49;;;;;;;;;;;;;;;15.80;62.77;101877.25;5091190;28;19923;-47
2023/06/15 03:53:15;;;;;;;;;;;;;;;15.81;60.26;101879.00;5070070;28;20006;-44
2023/06/15 03:55:40;;;;;;;;;;;;;;;15.82;59.57;101877.28;5090856;28;19916;-45
2023/06/15 03:58:06;;;;;;;;;;;;;;;15.81;59.42;101878.13;5096940;28;19927;-47
2023/06/15 04:00:31;;;;;;;;;;;;;;;15.82;60.50;101879.88;5102071;28;20018;-46
2023/06/15 04:02:57;;;;;;;;;;;;;;;15.84;60.50;101875.63;5104049;28;19911;-45
2023/06/15 04:05:22;;;;;;;;;;;;;;;15.85;60.49;101879.97;5094656;28;19916;-45
2023/06/15 04:07:47;;;;;;;;;;;;;;;15.87;59.70;101885.19;5092317;28;19934;-61
2023/06/15 04:10:13;;;;;;;;;;;;;;;15.90;62.01;101887.84;5091285;28;20400;-60
2023/06/15 04:12:38;;;;;;;;;;;;;;;15.92;60.36;101888.75;5105031;28;19920;-59
2023/06/15 04:15:03;;;;;;;;;;;;;;;15.95;62.58;101891.41;5105224;28;19943;-60
2023/06/15 04:17:29;;;;;;;;;;;;;;;15.98;62.30;101889.75;5092806;28;19916;-59
2023/06/15 04:19:54;;;;;;;;;;;;;;;16.05;62.69;101888.19;5076325;28;20366;-60
2023/06/15 04:22:20;;;;;;;;;;;;;;;16.46;61.91;101885.59;5090708;28;19923;-60
2023/06/15 04:24:45;;;;;;;;;;;;;;;17.13;58.85;101892.94;5093807;28;20374;-59
2023/06/15 04:27:12;;;;;;;;;;;;;;;17.79;58.68;101899.25;5108248;28;19920;-60
2023/06/15 04:29:45;;;;;;;;;;;;;;;18.35;56.44;101903.50;5102237;28;20363;-60
2023/06/15 04:32:10;;;;;;;;;;;;;;;18.93;55.87;101892.03;5097567;28;19916;-46
2023/06/15 04:34:36;;;;;;;;;;;;;;;19.36;54.15;101894.16;5102395;28;19920;-47
2023/06/15 04:37:01;;;;;;;;;;;;;;;19.89;53.19;101894.56;5106313;28;19950;-46
2023/06/15 04:39:27;;;;;;;;;;;;;;;20.31;51.51;101893.91;5100527;28;20363;-45
2023/06/15 04:41:52;;;;;;;;;;;;;;;20.62;51.13;101905.38;5103468;28;19920;-48
2023/06/15 04:44:18;;;;;;;;;;;;;;;20.85;50.50;101894.97;5095771;28;19916;-47
2023/06/15 04:46:43;;;;;;;;;;;;;;;21.18;49.83;101902.88;5102643;28;20011;-45
2023/06/15 04:49:08;;;;;;;;;;;;;;;21.51;48.69;101907.28;5100201;28;20391;-45
2023/06/15 04:51:34;;;;;;;;;;;;;;;21.64;48.45;101909.00;5113373;28;20390;-44
2023/06/15 04:53:59;;;;;;;;;;;;;;;21.71;48.50;101908.09;5100967;28;19923;-49
2023/06/15 04:56:24;;;;;;;;;;;;;;;21.88;48.20;101908.97;5094494;28;19916;-47
2023/06/15 04:58:50;;;;;;;;;;;;;;;22.08;47.40;101923.75;5097646;28;20369;-45
2023/06/15 05:01:15;;;;;;;;;;;;;;;22.12;47.45;101918.53;5101581;28;19958;-48
2023/06/15 05:03:41;;;;;;;;;;;;;;;22.04;47.34;101916.78;5096643;28;19916;-46
2023/06/15 05:06:07;;;;;;;;;;;;;;;22.03;46.83;101917.69;5104997;28;19950;-45
2023/06/15 05:08:33;;;;;;;;;;;;;;;22.05;47.23;101923.78;5114281;28;19916;-45
2023/06/15 05:10:58;;;;;;;;;;;;;;;22.15;48.10;101925.53;5114564;28;20018;-45
2023/06/15 05:13:23;;;;;;;;;;;;;;;22.27;47.46;101920.25;5113983;28;19953;-45
2023/06/15 05:15:48;;;;;;;;;;;;;;;22.47;46.45;101925.41;5112659;28;19961;-48
2023/06/15 05:18:14;;;;;;;;;;;;;;;22.71;46.44;101924.41;5114189;28;19922;-47
2023/06/15 05:20:39;;;;;;;;;;;;;;;22.91;46.17;101925.19;5087023;28;20026;-50
2023/06/15 05:23:04;;;;;;;;;;;;;;;22.92;45.57;101919.06;5114443;28;20424;-47
2023/06/15 05:25:29;;;;;;;;;;;;;;;23.01;45.35;101924.28;5098316;28;20358;-48
2023/06/15 05:27:55;;;;;;;;;;;;;;;22.96;45.32;101927.81;5101895;28;19933;-60
2023/06/15 05:30:22;;;;;;;;;;;;;;;22.84;45.88;101920.84;5100930;28;19924;-60
2023/06/15 05:32:47;;;;;;;;;;;;;;;22.98;45.58;101919.03;5093741;28;19912;-59
2023/06/15 05:35:13;;;;;;;;;;;;;;;23.25;46.06;101917.97;5111430;28;19966;-60
2023/06/15 05:37:38;;;;;;;;;;;;;;;23.39;45.43;101920.47;5093802;28;19927;-46
2023/06/15 05:40:04;;;;;;;;;;;;;;;23.67;44.39;101920.28;5099847;28;19920;-45
2023/06/15 05:42:29;;;;;;;;;;;;;;;23.94;43.82;101927.88;5114096;28;20026;-44
2023/06/15 05:44:55;;;;;;;;;;;;;;;24.12;43.48;101925.94;5093701;28;19919;-45
2023/06/15 05:47:20;;;;;;;;;;;;;;;24.22;43.45;101927.59;5106951;28;19916;-49
2023/06/15 05:49:46;;;;;;;;;;;;;;;24.36;43.40;101930.06;5113657;28;19912;-45
2023/06/15 05:52:11;;;;;;;;;;;;;;;24.51;42.95;101929.84;5113876;28;19927;-49
2023/06/15 05:54:36;;;;;;;;;;;;;;;24.52;42.58;101932.50;5113302;28;19928;-45
2023/06/15 05:57:02;;;;;;;;;;;;;;;24.66;43.20;101931.44;5111666;28;19924;-46
2023/06/15 05:59:28;;;;;;;;;;;;;;;24.69;43.38;101929.63;5100696;28;19916;-46
2023/06/15 06:01:53;;;;;;;;;;;;;;;24.67;43.40;101941.06;5086777;28;19949;-48
2023/06/15 06:04:18;;;;;;;;;;;;;;;24.70;43.00;101933.16;5097377;28;19920;-47
2023/06/15 06:06:43;;;;;;;;;;;;;;;24.86;43.58;101930.25;5102337;28;20006;-46
2023/06/15 06:09:09;;;;;;;;;;;;;;;25.11;42.66;101927.28;5106107;28;19951;-45
2023/06/15 06:11:35;;;;;;;;;;;;;;;25.33;41.31;101927.84;5096746;28;19915;-45
2023/06/15 06:14:00;;;;;;;;;;;;;;;25.50;41.64;101933.69;5105110;28;19953;-49
2023/06/15 06:16:25;;;;;;;;;;;;;;;25.51;41.40;101924.88;5097195;28;19922;-45
2023/06/15 06:18:50;;;;;;;;;;;;;;;25.46;41.80;101923.22;5096368;28;20842;-47
2023/06/15 06:21:16;;;;;;;;;;;;;;;25.57;41.50;101930.06;5097997;28;19939;-46
2023/06/15 06:23:41;;;;;;;;;;;;;;;25.58;42.22;101926.50;5099298;28;19923;-50
2023/06/15 06:26:06;;;;;;;;;;;;;;;25.75;42.69;101928.88;5094558;28;19920;-47
2023/06/15 06:28:31;;;;;;;;;;;;;;;25.77;42.58;101931.50;5092824;28;19956;-49
2023/06/15 06:30:57;;;;;;;;;;;;;;;25.81;41.35;101934.03;5092431;28;20337;-49
2023/06/15 06:33:22;;;;;;;;;;;;;;;25.86;41.68;101929.56;5103695;28;19916;-47
2023/06/15 06:35:47;;;;;;;;;;;;;;;25.86;41.56;101931.34;5099181;28;20003;-49
2023/06/15 06:38:13;;;;;;;;;;;;;;;25.80;41.46;101927.03;5100182;28;19972;-47
2023/06/15 06:40:38;;;;;;;;;;;;;;;25.79;42.21;101924.44;5104023;28;19928;-48
2023/06/15 06:43:03;;;;;;;;;;;;;;;26.00;42.04;101929.28;5096516;28;19927;-49
2023/06/15 06:45:28;;;;;;;;;;;;;;;25.87;41.81;101927.78;5099781;28;20362;-48
2023/06/15 06:47:53;;;;;;;;;;;;;;;25.93;41.76;101932.94;5097806;28;20320;-46
2023/06/15 06:50:19;;;;;;;;;;;;;;;26.01;41.78;101931.03;5098231;28;19967;-47
2023/06/15 06:52:44;;;;;;;;;;;;;;;25.93;41.36;101928.53;5073826;28;19930;-46
2023/06/15 06:55:09;;;;;;;;;;;;;;;25.78;41.88;101927.94;5092514;28;20425;-44
2023/06/15 06:57:35;;;;;;;;;;;;;;;25.78;41.40;101925.31;5091765;28;19970;-46
2023/06/15 07:00:00;;;;;;;;;;;;;;;25.83;41.36;101937.50;5081080;28;19958;-46
2023/06/15 07:02:26;;;;;;;;;;;;;;;25.85;41.64;101940.16;5076392;28;20255;-48
2023/06/15 07:04:51;;;;;;;;;;;;;;;25.85;40.74;101935.75;5082298;28;19924;-45
2023/06/15 07:07:16;;;;;;;;;;;;;;;25.92;41.46;101936.50;5075380;28;20005;-49
2023/06/15 07:09:41;;;;;;;;;;;;;;;25.89;40.47;101936.53;5081921;28;20335;-47
2023/06/15 07:12:07;;;;;;;;;;;;;;;25.97;40.04;101942.53;5092098;28;19916;-48
2023/06/15 07:14:32;;;;;;;;;;;;;;;26.00;39.64;101931.94;5064095;28;19916;-48
2023/06/15 07:16:58;;;;;;;;;;;;;;;26.08;39.98;101937.91;5091032;28;19946;-49
2023/06/15 07:19:23;;;;;;;;;;;;;;;26.20;39.35;101936.81;5085136;28;20015;-59
2023/06/15 07:21:48;;;;;;;;;;;;;;;26.19;39.39;101946.50;5078728;28;19927;-60
2023/06/15 07:24:13;;;;;;;;;;;;;;;26.25;39.54;101931.44;5080744;28;19966;-59
2023/06/15 07:26:39;;;;;;;;;;;;;;;26.39;38.20;101939.94;5074211;28;20363;-50
2023/06/15 07:29:04;;;;;;;;;;;;;;;26.35;39.02;101938.28;5088408;28;19974;-46
2023/06/15 07:31:30;;;;;;;;;;;;;;;26.22;37.71;101935.03;5091026;28;19972;-48
2023/06/15 07:33:56;;;;;;;;;;;;;;;26.37;39.15;101939.09;5091062;28;19920;-48
2023/06/15 07:36:21;;;;;;;;;;;;;;;26.59;38.60;101935.16;5086459;28;19959;-45
2023/06/15 07:38:46;;;;;;;;;;;;;;;26.69;36.14;101946.38;5089488;28;20020;-60
2023/06/15 07:41:12;;;;;;;;;;;;;;;26.69;37.98;101941.09;5072379;28;19927;-59
2023/06/15 07:43:37;;;;;;;;;;;;;;;26.89;37.61;101938.88;5090645;28;19931;-60
2023/06/15 07:46:02;;;;;;;;;;;;;;;26.89;37.06;101940.66;5080504;28;19923;-59
2023/06/15 07:48:27;;;;;;;;;;;;;;;26.83;36.45;101940.81;5076244;28;20011;-59
2023/06/15 07:50:53;;;;;;;;;;;;;;;26.90;37.55;101935.34;5073103;28;20425;-59
2023/06/15 07:53:18;;;;;;;;;;;;;;;26.98;35.69;101933.38;5067766;28;19932;-60
2023/06/15 07:55:44;;;;;;;;;;;;;;;27.12;36.74;101922.56;5077908;28;20012;-59
2023/06/15 07:58:10;;;;;;;;;;;;;;;27.14;34.52;101930.44;5092164;28;19999;-59
2023/06/15 08:00:35;;;;;;;;;;;;;;;27.05;34.34;101926.19;5103021;28;19951;-45
2023/06/15 08:03:00;;;;;;;;;;;;;;;27.13;34.99;101931.34;5083967;28;19920;-46
2023/06/15 08:05:26;;;;;;;;;;;;;;;27.27;34.79;101934.50;5109264;28;19924;-46
2023/06/15 08:07:51;;;;;;;;;;;;;;;27.34;35.96;101933.44;5103826;28;20225;-45
2023/06/15 08:10:17;;;;;;;;;;;;;;;27.43;35.36;101929.72;5098552;28;19919;-47
2023/06/15 08:12:43;;;;;;;;;;;;;;;27.52;34.82;101932.09;5100683;28;19962;-48
2023/06/15 08:15:08;;;;;;;;;;;;;;;27.67;34.60;101934.38;5099358;28;19924;-47
2023/06/15 08:17:33;;;;;;;;;;;;;;;27.72;34.99;101929.84;5098897;28;19963;-49
2023/06/15 08:20:00;;;;;;;;;;;;;;;27.61;34.75;101934.53;5100870;28;19916;-45
2023/06/15 08:22:25;;;;;;;;;;;;;;;27.51;34.48;101933.03;5086122;28;19920;-45
2023/06/15 08:24:50;;;;;;;;;;;;;;;27.37;33.57;101932.50;5110319;28;20208;-45
2023/06/15 08:27:15;;;;;;;;;;;;;;;27.38;33.19;101939.53;5081575;28;20455;-45
2023/06/15 08:29:44;;;;;;;;;;;;;;;27.35;33.57;101937.81;5094634;28;19916;-43
2023/06/15 08:32:13;;;;;;;;;;;;;;;27.22;33.59;101931.97;5095098;28;19912;-49
2023/06/15 08:34:39;;;;;;;;;;;;;;;27.31;33.06;101940.59;5078890;28;19924;-46
2023/06/15 08:37:05;;;;;;;;;;;;;;;27.38;33.62;101939.53;5104125;28;20384;-49
2023/06/15 08:39:30;;;;;;;;;;;;;;;27.56;33.23;101936.41;5102835;28;19995;-46
2023/06/15 08:41:56;;;;;;;;;;;;;;;27.56;32.88;101935.56;5100412;28;19904;-48
2023/06/15 08:44:22;;;;;;;;;;;;;;;27.56;31.98;101943.47;5102895;28;19927;-49
2023/06/15 08:46:47;;;;;;;;;;;;;;;27.48;32.59;101935.72;5108411;28;19955;-46
2023/06/15 08:49:13;;;;;;;;;;;;;;;27.44;31.43;101927.03;5110039;28;19920;-48
2023/06/15 08:51:38;;;;;;;;;;;;;;;27.45;32.37;101930.53;5110018;28;19977;-44
2023/06/15 08:54:06;;;;;;;;;;;;;;;27.39;32.06;101930.69;5109613;28;19923;-47
2023/06/15 08:56:31;;;;;;;;;;;;;;;27.51;32.39;101928.59;5100322;28;19942;-49
2023/06/15 08:58:57;;;;;;;;;;;;;;;27.46;31.36;101929.63;5101141;28;20014;-60
2023/06/15 09:01:22;;;;;;;;;;;;;;;27.47;30.80;101928.72;5099359;28;19920;-60
2023/06/15 09:03:51;;;;;;;;;;;;;;;27.45;31.49;101930.53;5112197;28;19937;-60
2023/06/15 09:06:17;;;;;;;;;;;;;;;27.32;32.57;101923.81;5105464;28;19916;-61
2023/06/15 09:08:44;;;;;;;;;;;;;;;27.39;32.21;101928.03;5109656;28;19916;-61
2023/06/15 09:11:09;;;;;;;;;;;;;;;27.46;31.82;101925.19;5103693;28;19920;-61
2023/06/15 09:13:34;;;;;;;;;;;;;;;27.44;32.10;101924.38;5097746;28;19920;-60
2023/06/15 09:16:00;;;;;;;;;;;;;;;27.31;31.82;101930.03;5102577;28;19976;-61
2023/06/15 09:18:26;;;;;;;;;;;;;;;27.07;31.24;101919.16;5113008;27;20294;-60
2023/06/15 09:20:51;;;;;;;;;;;;;;;26.93;31.81;101919.41;5107709;27;19916;-59
2023/06/15 09:23:17;;;;;;;;;;;;;;;26.62;32.02;101928.94;5110918;27;19912;-60
2023/06/15 09:25:51;;;;;;;;;;;;;;;26.20;32.24;101927.13;5107367;27;19945;-60
2023/06/15 09:28:19;;;;;;;;;;;;;;;26.22;32.83;101920.97;5108320;27;19922;-47
2023/06/15 09:30:51;;;;;;;;;;;;;;;26.26;32.05;101930.53;5102585;28;19912;-46
2023/06/15 09:33:17;;;;;;;;;;;;;;;26.20;32.30;101931.53;5109891;27;19920;-46
2023/06/15 09:36:02;;;;;;;;;;;;;;;26.35;31.83;101917.19;5088432;28;19957;-46
2023/06/15 09:38:30;;;;;;;;;;;;;;;26.57;32.34;101922.88;5105784;28;19912;-46
2023/06/15 09:40:56;;;;;;;;;;;;;;;26.67;32.17;101922.66;5099694;28;19920;-47
2023/06/15 09:43:21;;;;;;;;;;;;;;;26.64;31.54;101922.75;5106097;28;20267;-44
2023/06/15 09:45:50;;;;;;;;;;;;;;;26.72;31.24;101917.28;5112310;27;19918;-45
2023/06/15 09:48:15;;;;;;;;;;;;;;;26.56;31.53;101922.03;5118427;27;19911;-47
2023/06/15 09:50:40;;;;;;;;;;;;;;;26.58;32.23;101920.25;5115411;27;19915;-46
2023/06/15 09:53:08;;;;;;;;;;;;;;;26.86;31.92;101909.03;5117154;27;19920;-48
2023/06/15 09:55:34;;;;;;;;;;;;;;;26.97;31.86;101914.94;5102453;28;20046;-47
2023/06/15 09:58:00;;;;;;;;;;;;;;;27.09;32.08;101914.69;5081254;28;19916;-44
2023/06/15 10:00:26;;;;;;;;;;;;;;;26.96;30.91;101914.09;5104710;28;19932;-46
2023/06/15 10:02:52;;;;;;;;;;;;;;;26.68;31.90;101916.47;5103509;28;20274;-45
2023/06/15 10:05:22;;;;;;;;;;;;;;;26.46;32.27;101917.88;5100414;28;19912;-48
2023/06/15 10:07:48;;;;;;;;;;;;;;;26.45;32.42;101919.63;5104054;28;20015;-49
2023/06/15 10:10:15;;;;;;;;;;;;;;;26.58;32.68;101917.59;5125666;27;19922;-44
2023/06/15 10:12:43;;;;;;;;;;;;;;;26.80;31.97;101917.09;5115707;27;19912;-44
2023/06/15 10:15:12;;;;;;;;;;;;;;;26.99;32.52;101915.78;5117515;27;19919;-48
2023/06/15 10:17:40;;;;;;;;;;;;;;;27.20;31.53;101922.34;5104199;28;19919;-47
2023/06/15 10:20:09;;;;;;;;;;;;;;;27.19;31.17;101916.22;5104736;28;19935;-46
2023/06/15 10:22:38;;;;;;;;;;;;;;;27.22;30.83;101913.47;5103893;28;20061;-46
2023/06/15 10:25:05;;;;;;;;;;;;;;;27.54;31.39;101914.44;5098619;28;19912;-46
2023/06/15 10:27:30;;;;;;;;;;;;;;;27.78;30.92;101910.31;5109086;27;20357;-49
2023/06/15 10:30:02;;;;;;;;;;;;;;;27.84;30.79;101910.13;5100955;28;19981;-48
2023/06/15 10:32:30;;;;;;;;;;;;;;;27.85;30.76;101911.91;5113010;27;19920;-47
2023/06/15 10:35:07;;;;;;;;;;;;;;;28.03;30.45;101916.69;5101463;28;19983;-45
2023/06/15 10:37:35;;;;;;;;;;;;;;;28.02;30.06;101916.69;5114869;27;20372;-48
2023/06/15 10:40:10;;;;;;;;;;;;;;;28.01;29.72;101914.97;5120637;27;20374;-49
2023/06/15 10:42:47;;;;;;;;;;;;;;;28.00;29.99;101911.47;5112966;28;19919;-45
2023/06/15 10:45:21;;;;;;;;;;;;;;;28.13;30.28;101906.69;5108902;28;20396;-46
2023/06/15 10:47:50;;;;;;;;;;;;;;;28.17;29.53;101913.63;5104010;28;19912;-50
2023/06/15 10:50:16;;;;;;;;;;;;;;;28.00;29.16;101910.59;5104247;28;19912;-46
2023/06/15 10:52:41;;;;;;;;;;;;;;;27.98;30.13;101912.44;5105195;28;19927;-47
2023/06/15 10:55:14;;;;;;;;;;;;;;;28.06;29.70;101910.41;5104200;28;20275;-48
2023/06/15 10:57:40;;;;;;;;;;;;;;;28.19;29.83;101906.50;5106590;28;19924;-47
2023/06/15 11:00:07;;;;;;;;;;;;;;;28.45;29.91;101903.13;5103790;28;19923;-48
2023/06/15 11:02:32;;;;;;;;;;;;;;;28.43;29.78;101909.38;5104940;28;20313;-46
2023/06/15 11:05:04;;;;;;;;;;;;;;;28.17;29.45;101910.13;5093657;28;19919;-46
2023/06/15 11:07:34;;;;;;;;;;;;;;;27.91;29.66;101910.84;5101815;28;19947;-46
2023/06/15 11:10:09;;;;;;;;;;;;;;;27.81;30.26;101906.72;5106249;28;20375;-49
2023/06/15 11:12:36;;;;;;;;;;;;;;;27.72;29.92;101913.97;5095889;28;20003;-44
2023/06/15 11:15:03;;;;;;;;;;;;;;;27.44;30.58;101910.31;5103260;28;20437;-49
2023/06/15 11:17:29;;;;;;;;;;;;;;;27.41;30.18;101910.38;5105931;28;19912;-46
2023/06/15 11:19:55;;;;;;;;;;;;;;;27.27;30.17;101906.31;5109607;28;19934;-46
2023/06/15 11:22:25;;;;;;;;;;;;;;;27.24;30.13;101910.78;5095164;28;20290;-47
2023/06/15 11:24:52;;;;;;;;;;;;;;;27.31;30.52;101904.47;5106916;28;19943;-48
2023/06/15 11:27:20;;;;;;;;;;;;;;;27.52;30.70;101909.19;5098689;28;20354;-46
2023/06/15 11:29:46;;;;;;;;;;;;;;;27.63;30.51;101903.63;5102051;28;19923;-47
2023/06/15 11:32:11;;;;;;;;;;;;;;;27.77;30.65;101904.16;5107348;28;19916;-47
2023/06/15 11:34:38;;;;;;;;;;;;;;;27.99;29.92;101899.16;5095026;28;19920;-47
2023/06/15 11:37:04;;;;;;;;;;;;;;;28.17;29.35;101903.06;5108682;27;19915;-48
2023/06/15 11:39:30;;;;;;;;;;;;;;;28.30;29.51;101891.19;5105416;28;20381;-45
2023/06/15 11:41:56;;;;;;;;;;;;;;;28.21;29.48;101893.22;5103031;28;19912;-48
2023/06/15 11:44:23;;;;;;;;;;;;;;;28.18;29.66;101890.69;5098256;28;19912;-48
2023/06/15 11:46:55;;;;;;;;;;;;;;;28.43;29.36;101882.94;5114142;27;19934;-49
2023/06/15 11:49:21;;;;;;;;;;;;;;;28.42;29.51;101887.34;5115925;27;19958;-46
2023/06/15 11:51:47;;;;;;;;;;;;;;;28.30;29.77;101883.25;5104217;27;20427;-49
2023/06/15 11:54:15;;;;;;;;;;;;;;;28.40;29.48;101888.31;5100360;28;20082;-44
2023/06/15 11:56:44;;;;;;;;;;;;;;;28.55;28.84;101885.19;5091944;28;19920;-44
2023/06/15 11:59:10;;;;;;;;;;;;;;;28.54;28.62;101879.03;5112246;27;19924;-47
2023/06/15 12:01:36;;;;;;;;;;;;;;;28.47;29.25;101879.28;5103697;28;19922;-46
2023/06/15 12:04:01;;;;;;;;;;;;;;;28.50;29.54;101879.19;5093572;28;20282;-45
2023/06/15 12:06:26;;;;;;;;;;;;;;;28.69;29.17;101869.75;5085374;28;19927;-46
2023/06/15 12:08:54;;;;;;;;;;;;;;;28.86;29.20;101872.72;5085940;28;19920;-46
2023/06/15 12:11:23;;;;;;;;;;;;;;;28.81;28.88;101876.44;5096306;28;20565;-47
2023/06/15 12:13:48;;;;;;;;;;;;;;;28.86;27.57;101867.44;5097797;28;19958;-43
2023/06/15 12:16:14;;;;;;;;;;;;;;;28.78;27.83;101866.81;5096842;28;20354;-44
2023/06/15 12:18:39;;;;;;;;;;;;;;;28.80;28.55;101861.47;5104382;28;19916;-44
2023/06/15 12:21:05;;;;;;;;;;;;;;;28.73;28.84;101866.09;5116508;28;19965;-45
2023/06/15 12:23:31;;;;;;;;;;;;;;;28.42;29.34;101865.31;5102674;28;20339;-44
2023/06/15 12:25:57;;;;;;;;;;;;;;;28.10;29.66;101866.25;5080978;28;20320;-48
2023/06/15 12:28:23;;;;;;;;;;;;;;;27.83;30.07;101870.53;5108916;28;19912;-47
2023/06/15 12:30:49;;;;;;;;;;;;;;;27.82;30.23;101868.81;5109035;28;19923;-45